sensor_id;sensor_type;location;lat;lon;timestamp;temperature;humidity
22503;DHT22;11418;48.118;9.992;2023-05-07T00:03:08;10.00;99.90
22503;DHT22;11418;48.118;9.992;2023-05-07T00:07:08;10.00;99.90
22503;DHT22;11418;48.118;9.992;2023-05-07T00:11:09;9.90;99.90
22503;DHT22;11418;48.118;9.992;2023-05-07T00:15:09;9.90;99.90
22503;DHT22;11418;48.118;9.992;2023-05-07T00:19:10;9.90;99.90
22503;DHT22;11418;48.118;9.992;2023-05-07T00:23:10;10.30;99.90
22503;DHT22;11418;48.118;9.992;2023-05-07T00:27:11;10.30;99.90
22503;DHT22;11418;48.118;9.992;2023-05-07T00:31:11;10.40;99.90
22503;DHT22;11418;48.118;9.992;2023-05-07T00:35:12;10.20;99.90
22503;DHT22;11418;48.118;9.992;2023-05-07T00:39:12;10.10;99.90
22503;DHT22;11418;48.118;9.992;2023-05-07T00:43:13;9.90;99.90
22503;DHT22;11418;48.118;9.992;2023-05-07T00:47:13;9.70;99.90
22503;DHT22;11418;48.118;9.992;2023-05-07T00:51:14;9.70;99.90
22503;DHT22;11418;48.118;9.992;2023-05-07T00:55:15;9.80;99.90
22503;DHT22;11418;48.118;9.992;2023-05-07T00:59:15;9.90;99.90
22503;DHT22;11418;48.118;9.992;2023-05-07T01:03:16;9.90;99.90
22503;DHT22;11418;48.118;9.992;2023-05-07T01:07:16;9.80;99.90
22503;DHT22;11418;48.118;9.992;2023-05-07T01:11:17;9.70;99.90
22503;DHT22;11418;48.118;9.992;2023-05-07T01:15:19;9.70;99.90
22503;DHT22;11418;48.118;9.992;2023-05-07T01:19:20;9.60;99.90
22503;DHT22;11418;48.118;9.992;2023-05-07T01:23:20;9.60;99.90
22503;DHT22;11418;48.118;9.992;2023-05-07T01:27:21;9.60;99.90
22503;DHT22;11418;48.118;9.992;2023-05-07T01:31:21;9.60;99.90
22503;DHT22;11418;48.118;9.992;2023-05-07T01:35:24;9.70;99.90
22503;DHT22;11418;48.118;9.992;2023-05-07T01:39:27;9.80;99.90
22503;DHT22;11418;48.118;9.992;2023-05-07T01:43:28;10.30;99.90
22503;DHT22;11418;48.118;9.992;2023-05-07T01:47:29;10.10;99.90
22503;DHT22;11418;48.118;9.992;2023-05-07T01:51:30;9.70;99.90
22503;DHT22;11418;48.118;9.992;2023-05-07T01:55:31;9.60;99.90
22503;DHT22;11418;48.118;9.992;2023-05-07T01:59:32;9.50;99.90
22503;DHT22;11418;48.118;9.992;2023-05-07T02:03:32;9.40;99.90
22503;DHT22;11418;48.118;9.992;2023-05-07T02:07:32;9.40;99.90
22503;DHT22;11418;48.118;9.992;2023-05-07T02:11:33;9.40;99.90
22503;DHT22;11418;48.118;9.992;2023-05-07T02:15:33;9.50;99.90
22503;DHT22;11418;48.118;9.992;2023-05-07T02:19:34;9.60;99.90
22503;DHT22;11418;48.118;9.992;2023-05-07T02:23:34;9.70;99.90
22503;DHT22;11418;48.118;9.992;2023-05-07T02:27:35;9.50;99.90
22503;DHT22;11418;48.118;9.992;2023-05-07T02:31:35;9.40;99.90
22503;DHT22;11418;48.118;9.992;2023-05-07T02:35:36;9.20;99.90
22503;DHT22;11418;48.118;9.992;2023-05-07T02:39:36;9.00;99.90
22503;DHT22;11418;48.118;9.992;2023-05-07T02:43:37;9.00;99.90
22503;DHT22;11418;48.118;9.992;2023-05-07T02:47:37;8.90;99.90
22503;DHT22;11418;48.118;9.992;2023-05-07T02:51:38;8.80;99.90
22503;DHT22;11418;48.118;9.992;2023-05-07T02:55:38;8.80;99.90
22503;DHT22;11418;48.118;9.992;2023-05-07T02:59:39;8.90;99.90
22503;DHT22;11418;48.118;9.992;2023-05-07T03:03:39;8.90;99.90
22503;DHT22;11418;48.118;9.992;2023-05-07T03:07:40;8.70;99.90
22503;DHT22;11418;48.118;9.992;2023-05-07T03:11:44;8.80;99.90
22503;DHT22;11418;48.118;9.992;2023-05-07T03:15:44;8.80;99.90
22503;DHT22;11418;48.118;9.992;2023-05-07T03:19:45;8.80;99.90
22503;DHT22;11418;48.118;9.992;2023-05-07T03:23:46;9.00;99.90
22503;DHT22;11418;48.118;9.992;2023-05-07T03:27:46;8.60;99.90
22503;DHT22;11418;48.118;9.992;2023-05-07T03:31:46;8.30;99.90
22503;DHT22;11418;48.118;9.992;2023-05-07T03:35:47;8.20;99.90
22503;DHT22;11418;48.118;9.992;2023-05-07T03:39:47;8.20;99.90
22503;DHT22;11418;48.118;9.992;2023-05-07T03:43:48;8.20;99.90
22503;DHT22;11418;48.118;9.992;2023-05-07T03:47:48;8.20;99.90
22503;DHT22;11418;48.118;9.992;2023-05-07T03:51:49;8.40;99.90
22503;DHT22;11418;48.118;9.992;2023-05-07T03:55:49;8.20;99.90
22503;DHT22;11418;48.118;9.992;2023-05-07T03:59:50;8.00;99.90
22503;DHT22;11418;48.118;9.992;2023-05-07T04:03:50;7.90;99.90
22503;DHT22;11418;48.118;9.992;2023-05-07T04:07:50;8.00;99.90
22503;DHT22;11418;48.118;9.992;2023-05-07T04:11:51;7.90;99.90
22503;DHT22;11418;48.118;9.992;2023-05-07T04:15:52;7.90;99.90
22503;DHT22;11418;48.118;9.992;2023-05-07T04:19:52;7.90;99.90
22503;DHT22;11418;48.118;9.992;2023-05-07T04:23:53;7.90;99.90
22503;DHT22;11418;48.118;9.992;2023-05-07T04:27:53;8.10;99.90
22503;DHT22;11418;48.118;9.992;2023-05-07T04:31:53;8.30;99.90
22503;DHT22;11418;48.118;9.992;2023-05-07T04:35:56;8.40;99.90
22503;DHT22;11418;48.118;9.992;2023-05-07T04:39:57;8.70;99.90
22503;DHT22;11418;48.118;9.992;2023-05-07T04:43:57;9.00;99.90
22503;DHT22;11418;48.118;9.992;2023-05-07T04:47:59;9.30;99.90
22503;DHT22;11418;48.118;9.992;2023-05-07T04:51:59;9.40;99.90
22503;DHT22;11418;48.118;9.992;2023-05-07T04:55:59;9.50;99.90
22503;DHT22;11418;48.118;9.992;2023-05-07T05:00:00;9.70;99.90
22503;DHT22;11418;48.118;9.992;2023-05-07T05:04:00;9.80;99.90
22503;DHT22;11418;48.118;9.992;2023-05-07T05:08:01;10.10;99.90
22503;DHT22;11418;48.118;9.992;2023-05-07T05:12:02;10.50;99.90
22503;DHT22;11418;48.118;9.992;2023-05-07T05:16:02;10.70;99.90
22503;DHT22;11418;48.118;9.992;2023-05-07T05:20:03;11.00;99.90
22503;DHT22;11418;48.118;9.992;2023-05-07T05:24:04;11.10;99.90
22503;DHT22;11418;48.118;9.992;2023-05-07T05:28:04;11.50;99.90
22503;DHT22;11418;48.118;9.992;2023-05-07T05:32:05;12.20;99.90
22503;DHT22;11418;48.118;9.992;2023-05-07T05:36:05;12.20;99.90
22503;DHT22;11418;48.118;9.992;2023-05-07T05:40:06;12.40;99.90
22503;DHT22;11418;48.118;9.992;2023-05-07T05:44:07;12.90;99.90
22503;DHT22;11418;48.118;9.992;2023-05-07T05:48:07;13.40;99.90
22503;DHT22;11418;48.118;9.992;2023-05-07T05:52:09;13.60;99.90
22503;DHT22;11418;48.118;9.992;2023-05-07T05:56:09;14.50;99.90
22503;DHT22;11418;48.118;9.992;2023-05-07T06:00:10;15.30;99.90
22503;DHT22;11418;48.118;9.992;2023-05-07T06:04:11;15.80;99.90
22503;DHT22;11418;48.118;9.992;2023-05-07T06:08:11;16.40;99.90
22503;DHT22;11418;48.118;9.992;2023-05-07T06:12:12;17.40;99.90
22503;DHT22;11418;48.118;9.992;2023-05-07T06:16:12;18.20;99.90
22503;DHT22;11418;48.118;9.992;2023-05-07T06:20:12;19.30;99.90
22503;DHT22;11418;48.118;9.992;2023-05-07T06:24:13;19.70;99.90
22503;DHT22;11418;48.118;9.992;2023-05-07T06:28:13;20.30;99.90
22503;DHT22;11418;48.118;9.992;2023-05-07T06:32:14;20.70;99.90
22503;DHT22;11418;48.118;9.992;2023-05-07T06:36:14;21.50;99.90
22503;DHT22;11418;48.118;9.992;2023-05-07T06:40:15;21.70;99.90
22503;DHT22;11418;48.118;9.992;2023-05-07T06:44:15;21.90;99.90
22503;DHT22;11418;48.118;9.992;2023-05-07T06:48:16;21.70;99.90
22503;DHT22;11418;48.118;9.992;2023-05-07T06:52:16;21.60;99.90
22503;DHT22;11418;48.118;9.992;2023-05-07T06:56:17;21.70;99.90
22503;DHT22;11418;48.118;9.992;2023-05-07T07:00:17;21.80;99.90
22503;DHT22;11418;48.118;9.992;2023-05-07T07:04:18;21.80;99.90
22503;DHT22;11418;48.118;9.992;2023-05-07T07:08:18;22.80;99.90
22503;DHT22;11418;48.118;9.992;2023-05-07T07:12:21;23.20;99.90
22503;DHT22;11418;48.118;9.992;2023-05-07T07:16:22;23.70;99.90
22503;DHT22;11418;48.118;9.992;2023-05-07T07:20:23;24.40;99.90
22503;DHT22;11418;48.118;9.992;2023-05-07T07:24:23;24.60;99.90
22503;DHT22;11418;48.118;9.992;2023-05-07T07:28:24;24.40;99.90
22503;DHT22;11418;48.118;9.992;2023-05-07T07:32:24;24.50;99.90
22503;DHT22;11418;48.118;9.992;2023-05-07T07:36:25;24.00;99.90
22503;DHT22;11418;48.118;9.992;2023-05-07T07:40:26;23.80;99.90
22503;DHT22;11418;48.118;9.992;2023-05-07T07:44:27;24.10;99.90
22503;DHT22;11418;48.118;9.992;2023-05-07T07:48:28;24.80;99.90
22503;DHT22;11418;48.118;9.992;2023-05-07T07:52:28;25.20;99.90
22503;DHT22;11418;48.118;9.992;2023-05-07T07:56:29;24.90;99.90
22503;DHT22;11418;48.118;9.992;2023-05-07T08:00:29;24.80;99.90
22503;DHT22;11418;48.118;9.992;2023-05-07T08:04:30;25.30;99.90
22503;DHT22;11418;48.118;9.992;2023-05-07T08:08:33;25.20;99.90
22503;DHT22;11418;48.118;9.992;2023-05-07T08:12:33;25.50;99.90
22503;DHT22;11418;48.118;9.992;2023-05-07T08:16:34;25.30;99.90
22503;DHT22;11418;48.118;9.992;2023-05-07T08:20:34;25.20;99.90
22503;DHT22;11418;48.118;9.992;2023-05-07T08:24:39;25.10;99.90
22503;DHT22;11418;48.118;9.992;2023-05-07T08:28:40;25.30;99.90
22503;DHT22;11418;48.118;9.992;2023-05-07T08:32:40;24.60;99.90
22503;DHT22;11418;48.118;9.992;2023-05-07T08:36:41;24.30;99.90
22503;DHT22;11418;48.118;9.992;2023-05-07T08:40:44;24.50;99.90
22503;DHT22;11418;48.118;9.992;2023-05-07T08:44:45;24.50;99.90
22503;DHT22;11418;48.118;9.992;2023-05-07T08:48:49;24.60;99.90
22503;DHT22;11418;48.118;9.992;2023-05-07T08:52:50;25.80;99.90
22503;DHT22;11418;48.118;9.992;2023-05-07T08:56:50;26.30;99.90
22503;DHT22;11418;48.118;9.992;2023-05-07T09:00:51;26.00;99.90
22503;DHT22;11418;48.118;9.992;2023-05-07T09:04:53;26.30;99.90
22503;DHT22;11418;48.118;9.992;2023-05-07T09:08:54;26.00;99.90
22503;DHT22;11418;48.118;9.992;2023-05-07T09:12:54;25.70;99.90
22503;DHT22;11418;48.118;9.992;2023-05-07T09:16:55;25.40;99.90
22503;DHT22;11418;48.118;9.992;2023-05-07T09:20:56;24.90;99.90
22503;DHT22;11418;48.118;9.992;2023-05-07T09:24:56;24.10;99.90
22503;DHT22;11418;48.118;9.992;2023-05-07T09:28:57;23.70;99.90
22503;DHT22;11418;48.118;9.992;2023-05-07T09:32:57;23.30;99.90
22503;DHT22;11418;48.118;9.992;2023-05-07T09:37:05;22.90;99.90
22503;DHT22;11418;48.118;9.992;2023-05-07T09:41:06;23.20;99.90
22503;DHT22;11418;48.118;9.992;2023-05-07T09:45:07;23.70;99.90
22503;DHT22;11418;48.118;9.992;2023-05-07T09:49:07;24.50;99.90
22503;DHT22;11418;48.118;9.992;2023-05-07T09:53:14;25.00;99.90
22503;DHT22;11418;48.118;9.992;2023-05-07T09:57:15;25.20;99.90
22503;DHT22;11418;48.118;9.992;2023-05-07T10:01:15;25.30;99.90
22503;DHT22;11418;48.118;9.992;2023-05-07T10:05:21;25.70;99.90
22503;DHT22;11418;48.118;9.992;2023-05-07T10:09:22;25.60;99.90
22503;DHT22;11418;48.118;9.992;2023-05-07T10:13:22;25.80;99.90
22503;DHT22;11418;48.118;9.992;2023-05-07T10:17:23;26.00;99.90
22503;DHT22;11418;48.118;9.992;2023-05-07T10:21:24;25.80;99.90
22503;DHT22;11418;48.118;9.992;2023-05-07T10:25:30;25.80;99.90
22503;DHT22;11418;48.118;9.992;2023-05-07T10:33:51;26.70;99.90
22503;DHT22;11418;48.118;9.992;2023-05-07T10:37:53;26.90;99.90
22503;DHT22;11418;48.118;9.992;2023-05-07T10:41:53;27.60;97.10
22503;DHT22;11418;48.118;9.992;2023-05-07T11:02:21;27.50;92.70
22503;DHT22;11418;48.118;9.992;2023-05-07T11:06:21;28.10;96.40
22503;DHT22;11418;48.118;9.992;2023-05-07T11:10:21;28.00;97.80
22503;DHT22;11418;48.118;9.992;2023-05-07T11:18:48;29.40;90.10
22503;DHT22;11418;48.118;9.992;2023-05-07T11:22:49;29.00;92.50
22503;DHT22;11418;48.118;9.992;2023-05-07T11:26:50;29.50;93.30
22503;DHT22;11418;48.118;9.992;2023-05-07T11:30:50;30.10;91.80
22503;DHT22;11418;48.118;9.992;2023-05-07T11:34:52;29.80;89.00
22503;DHT22;11418;48.118;9.992;2023-05-07T11:38:53;29.70;92.80
22503;DHT22;11418;48.118;9.992;2023-05-07T11:42:53;30.00;88.60
22503;DHT22;11418;48.118;9.992;2023-05-07T11:46:54;30.60;82.80
22503;DHT22;11418;48.118;9.992;2023-05-07T11:51:00;30.20;83.50
22503;DHT22;11418;48.118;9.992;2023-05-07T11:55:01;28.80;90.20
22503;DHT22;11418;48.118;9.992;2023-05-07T11:59:01;28.20;93.90
22503;DHT22;11418;48.118;9.992;2023-05-07T12:03:03;28.40;90.30
22503;DHT22;11418;48.118;9.992;2023-05-07T12:07:04;27.70;92.30
22503;DHT22;11418;48.118;9.992;2023-05-07T12:11:06;26.30;95.10
22503;DHT22;11418;48.118;9.992;2023-05-07T12:15:07;26.60;95.60
22503;DHT22;11418;48.118;9.992;2023-05-07T12:19:08;27.50;92.70
22503;DHT22;11418;48.118;9.992;2023-05-07T12:23:09;27.60;91.90
22503;DHT22;11418;48.118;9.992;2023-05-07T12:27:10;27.30;92.70
22503;DHT22;11418;48.118;9.992;2023-05-07T12:31:11;26.50;93.00
22503;DHT22;11418;48.118;9.992;2023-05-07T12:35:11;26.40;93.60
22503;DHT22;11418;48.118;9.992;2023-05-07T12:39:12;27.30;94.50
22503;DHT22;11418;48.118;9.992;2023-05-07T12:43:24;29.10;90.20
22503;DHT22;11418;48.118;9.992;2023-05-07T12:47:25;29.50;88.00
22503;DHT22;11418;48.118;9.992;2023-05-07T12:51:25;29.40;85.70
22503;DHT22;11418;48.118;9.992;2023-05-07T12:55:27;28.80;90.40
22503;DHT22;11418;48.118;9.992;2023-05-07T12:59:32;27.80;89.80
22503;DHT22;11418;48.118;9.992;2023-05-07T13:03:34;28.40;90.70
22503;DHT22;11418;48.118;9.992;2023-05-07T13:07:34;29.50;87.30
22503;DHT22;11418;48.118;9.992;2023-05-07T13:11:35;29.40;83.30
22503;DHT22;11418;48.118;9.992;2023-05-07T13:15:35;29.30;82.60
22503;DHT22;11418;48.118;9.992;2023-05-07T13:19:39;30.00;81.40
22503;DHT22;11418;48.118;9.992;2023-05-07T13:23:39;29.90;81.10
22503;DHT22;11418;48.118;9.992;2023-05-07T13:27:40;29.50;85.20
22503;DHT22;11418;48.118;9.992;2023-05-07T13:31:41;29.90;86.50
22503;DHT22;11418;48.118;9.992;2023-05-07T13:35:44;29.50;83.30
22503;DHT22;11418;48.118;9.992;2023-05-07T13:39:45;28.40;87.70
22503;DHT22;11418;48.118;9.992;2023-05-07T13:43:45;27.00;90.00
22503;DHT22;11418;48.118;9.992;2023-05-07T13:47:46;26.30;92.40
22503;DHT22;11418;48.118;9.992;2023-05-07T13:51:46;26.20;92.70
22503;DHT22;11418;48.118;9.992;2023-05-07T13:55:47;26.00;93.30
22503;DHT22;11418;48.118;9.992;2023-05-07T13:59:47;25.20;94.20
22503;DHT22;11418;48.118;9.992;2023-05-07T14:03:48;24.80;94.50
22503;DHT22;11418;48.118;9.992;2023-05-07T14:07:49;24.60;97.00
22503;DHT22;11418;48.118;9.992;2023-05-07T14:11:51;24.00;94.80
22503;DHT22;11418;48.118;9.992;2023-05-07T14:15:52;24.30;98.00
22503;DHT22;11418;48.118;9.992;2023-05-07T14:19:53;24.60;96.50
22503;DHT22;11418;48.118;9.992;2023-05-07T14:23:54;25.30;95.10
22503;DHT22;11418;48.118;9.992;2023-05-07T14:27:59;25.40;94.80
22503;DHT22;11418;48.118;9.992;2023-05-07T14:32:02;24.50;95.80
22503;DHT22;11418;48.118;9.992;2023-05-07T14:36:03;23.80;96.20
22503;DHT22;11418;48.118;9.992;2023-05-07T14:40:09;24.00;96.90
22503;DHT22;11418;48.118;9.992;2023-05-07T14:44:13;24.10;97.60
22503;DHT22;11418;48.118;9.992;2023-05-07T14:48:17;23.40;98.10
22503;DHT22;11418;48.118;9.992;2023-05-07T14:52:17;22.60;99.20
22503;DHT22;11418;48.118;9.992;2023-05-07T14:56:18;21.50;99.90
22503;DHT22;11418;48.118;9.992;2023-05-07T15:00:18;20.60;99.90
22503;DHT22;11418;48.118;9.992;2023-05-07T15:04:19;20.00;99.90
22503;DHT22;11418;48.118;9.992;2023-05-07T15:08:19;19.90;99.90
22503;DHT22;11418;48.118;9.992;2023-05-07T15:12:20;19.70;99.90
22503;DHT22;11418;48.118;9.992;2023-05-07T15:16:21;19.60;99.90
22503;DHT22;11418;48.118;9.992;2023-05-07T15:20:21;19.50;99.90
22503;DHT22;11418;48.118;9.992;2023-05-07T15:24:22;19.40;99.90
22503;DHT22;11418;48.118;9.992;2023-05-07T15:28:22;19.30;99.90
22503;DHT22;11418;48.118;9.992;2023-05-07T15:32:24;19.00;99.90
22503;DHT22;11418;48.118;9.992;2023-05-07T15:36:25;18.70;99.90
22503;DHT22;11418;48.118;9.992;2023-05-07T15:40:25;17.60;99.90
22503;DHT22;11418;48.118;9.992;2023-05-07T15:44:26;17.10;99.90
22503;DHT22;11418;48.118;9.992;2023-05-07T15:48:28;17.00;99.90
22503;DHT22;11418;48.118;9.992;2023-05-07T15:52:30;16.10;99.90
22503;DHT22;11418;48.118;9.992;2023-05-07T15:56:30;15.00;99.90
22503;DHT22;11418;48.118;9.992;2023-05-07T16:00:34;14.10;99.90
22503;DHT22;11418;48.118;9.992;2023-05-07T16:04:35;13.70;99.90
22503;DHT22;11418;48.118;9.992;2023-05-07T16:08:36;13.60;99.90
22503;DHT22;11418;48.118;9.992;2023-05-07T16:12:36;13.50;99.90
22503;DHT22;11418;48.118;9.992;2023-05-07T16:16:38;13.50;99.90
22503;DHT22;11418;48.118;9.992;2023-05-07T16:20:40;13.60;99.90
22503;DHT22;11418;48.118;9.992;2023-05-07T16:24:40;13.60;99.90
22503;DHT22;11418;48.118;9.992;2023-05-07T16:28:41;13.60;99.90
22503;DHT22;11418;48.118;9.992;2023-05-07T16:32:41;13.60;99.90
22503;DHT22;11418;48.118;9.992;2023-05-07T16:36:42;13.50;99.90
22503;DHT22;11418;48.118;9.992;2023-05-07T16:40:42;13.80;99.90
22503;DHT22;11418;48.118;9.992;2023-05-07T16:44:46;14.00;99.90
22503;DHT22;11418;48.118;9.992;2023-05-07T16:48:56;14.00;99.90
22503;DHT22;11418;48.118;9.992;2023-05-07T16:52:57;14.10;99.90
22503;DHT22;11418;48.118;9.992;2023-05-07T16:56:57;14.10;99.90
22503;DHT22;11418;48.118;9.992;2023-05-07T17:00:59;14.00;99.90
22503;DHT22;11418;48.118;9.992;2023-05-07T17:05:00;14.20;99.90
22503;DHT22;11418;48.118;9.992;2023-05-07T17:09:00;14.30;99.90
22503;DHT22;11418;48.118;9.992;2023-05-07T17:13:00;14.20;99.90
22503;DHT22;11418;48.118;9.992;2023-05-07T17:17:01;14.40;99.90
22503;DHT22;11418;48.118;9.992;2023-05-07T17:21:01;14.70;99.90
22503;DHT22;11418;48.118;9.992;2023-05-07T17:25:02;14.80;99.90
22503;DHT22;11418;48.118;9.992;2023-05-07T17:29:03;14.60;99.90
22503;DHT22;11418;48.118;9.992;2023-05-07T17:33:04;14.20;99.90
22503;DHT22;11418;48.118;9.992;2023-05-07T17:37:05;14.10;99.90
22503;DHT22;11418;48.118;9.992;2023-05-07T17:41:05;14.10;99.90
22503;DHT22;11418;48.118;9.992;2023-05-07T17:45:06;14.20;99.90
22503;DHT22;11418;48.118;9.992;2023-05-07T17:49:06;14.10;99.90
22503;DHT22;11418;48.118;9.992;2023-05-07T17:53:07;14.10;99.90
22503;DHT22;11418;48.118;9.992;2023-05-07T17:57:09;14.20;99.90
22503;DHT22;11418;48.118;9.992;2023-05-07T18:01:09;14.20;99.90
22503;DHT22;11418;48.118;9.992;2023-05-07T18:05:09;14.20;99.90
22503;DHT22;11418;48.118;9.992;2023-05-07T18:09:10;14.00;99.90
22503;DHT22;11418;48.118;9.992;2023-05-07T18:13:10;13.90;99.90
22503;DHT22;11418;48.118;9.992;2023-05-07T18:17:11;13.90;99.90
22503;DHT22;11418;48.118;9.992;2023-05-07T18:21:12;13.70;99.90
22503;DHT22;11418;48.118;9.992;2023-05-07T18:25:17;13.70;99.90
22503;DHT22;11418;48.118;9.992;2023-05-07T18:29:18;14.00;99.90
22503;DHT22;11418;48.118;9.992;2023-05-07T18:33:18;14.20;99.90
22503;DHT22;11418;48.118;9.992;2023-05-07T18:37:19;14.00;99.90
22503;DHT22;11418;48.118;9.992;2023-05-07T18:41:19;13.90;99.90
22503;DHT22;11418;48.118;9.992;2023-05-07T18:45:20;13.80;99.90
22503;DHT22;11418;48.118;9.992;2023-05-07T18:49:23;13.80;99.90
22503;DHT22;11418;48.118;9.992;2023-05-07T18:53:23;13.90;99.90
22503;DHT22;11418;48.118;9.992;2023-05-07T18:57:23;13.80;99.90
22503;DHT22;11418;48.118;9.992;2023-05-07T19:01:24;13.90;99.90
22503;DHT22;11418;48.118;9.992;2023-05-07T19:05:25;14.10;99.90
22503;DHT22;11418;48.118;9.992;2023-05-07T19:09:25;14.20;99.90
22503;DHT22;11418;48.118;9.992;2023-05-07T19:13:26;14.20;99.90
22503;DHT22;11418;48.118;9.992;2023-05-07T19:17:27;14.10;99.90
22503;DHT22;11418;48.118;9.992;2023-05-07T19:21:27;14.00;99.90
22503;DHT22;11418;48.118;9.992;2023-05-07T19:25:28;14.40;99.90
22503;DHT22;11418;48.118;9.992;2023-05-07T19:29:28;14.40;99.90
22503;DHT22;11418;48.118;9.992;2023-05-07T19:33:29;14.20;99.90
22503;DHT22;11418;48.118;9.992;2023-05-07T19:37:30;13.90;99.90
22503;DHT22;11418;48.118;9.992;2023-05-07T19:41:30;13.90;99.90
22503;DHT22;11418;48.118;9.992;2023-05-07T19:45:31;13.90;99.90
22503;DHT22;11418;48.118;9.992;2023-05-07T19:49:31;13.80;99.90
22503;DHT22;11418;48.118;9.992;2023-05-07T19:53:32;13.70;99.90
22503;DHT22;11418;48.118;9.992;2023-05-07T19:57:32;13.70;99.90
22503;DHT22;11418;48.118;9.992;2023-05-07T20:01:33;13.80;99.90
22503;DHT22;11418;48.118;9.992;2023-05-07T20:05:33;13.70;99.90
22503;DHT22;11418;48.118;9.992;2023-05-07T20:09:34;13.80;99.90
22503;DHT22;11418;48.118;9.992;2023-05-07T20:13:34;13.80;99.90
22503;DHT22;11418;48.118;9.992;2023-05-07T20:17:35;13.70;99.90
22503;DHT22;11418;48.118;9.992;2023-05-07T20:21:35;13.80;99.90
22503;DHT22;11418;48.118;9.992;2023-05-07T20:25:36;13.80;99.90
22503;DHT22;11418;48.118;9.992;2023-05-07T20:29:36;13.60;99.90
22503;DHT22;11418;48.118;9.992;2023-05-07T20:33:36;13.60;99.90
22503;DHT22;11418;48.118;9.992;2023-05-07T20:37:39;13.50;99.90
22503;DHT22;11418;48.118;9.992;2023-05-07T20:41:42;13.50;99.90
22503;DHT22;11418;48.118;9.992;2023-05-07T20:45:43;13.50;99.90
22503;DHT22;11418;48.118;9.992;2023-05-07T20:49:50;13.50;99.90
22503;DHT22;11418;48.118;9.992;2023-05-07T20:53:50;13.60;99.90
22503;DHT22;11418;48.118;9.992;2023-05-07T20:57:51;13.60;99.90
22503;DHT22;11418;48.118;9.992;2023-05-07T21:01:51;13.50;99.90
22503;DHT22;11418;48.118;9.992;2023-05-07T21:05:55;13.50;99.90
22503;DHT22;11418;48.118;9.992;2023-05-07T21:09:56;13.50;99.90
22503;DHT22;11418;48.118;9.992;2023-05-07T21:13:57;13.50;99.90
22503;DHT22;11418;48.118;9.992;2023-05-07T21:17:57;13.50;99.90
22503;DHT22;11418;48.118;9.992;2023-05-07T21:21:58;13.50;99.90
22503;DHT22;11418;48.118;9.992;2023-05-07T21:25:58;13.50;99.90
22503;DHT22;11418;48.118;9.992;2023-05-07T21:29:59;13.50;99.90
22503;DHT22;11418;48.118;9.992;2023-05-07T21:34:03;13.40;99.90
22503;DHT22;11418;48.118;9.992;2023-05-07T21:38:09;13.30;99.90
22503;DHT22;11418;48.118;9.992;2023-05-07T21:42:11;13.30;99.90
22503;DHT22;11418;48.118;9.992;2023-05-07T21:46:12;13.30;99.90
22503;DHT22;11418;48.118;9.992;2023-05-07T21:50:12;13.30;99.90
22503;DHT22;11418;48.118;9.992;2023-05-07T21:54:13;13.20;99.90
22503;DHT22;11418;48.118;9.992;2023-05-07T21:58:13;13.20;99.90
22503;DHT22;11418;48.118;9.992;2023-05-07T22:02:14;13.20;99.90
22503;DHT22;11418;48.118;9.992;2023-05-07T22:06:14;13.20;99.90
22503;DHT22;11418;48.118;9.992;2023-05-07T22:10:20;13.10;99.90
22503;DHT22;11418;48.118;9.992;2023-05-07T22:14:21;13.20;99.90
22503;DHT22;11418;48.118;9.992;2023-05-07T22:18:22;13.10;99.90
22503;DHT22;11418;48.118;9.992;2023-05-07T22:22:22;13.10;99.90
22503;DHT22;11418;48.118;9.992;2023-05-07T22:26:23;13.10;99.90
22503;DHT22;11418;48.118;9.992;2023-05-07T22:30:23;13.40;99.90
22503;DHT22;11418;48.118;9.992;2023-05-07T22:34:24;13.70;99.90
22503;DHT22;11418;48.118;9.992;2023-05-07T22:38:24;13.80;99.90
22503;DHT22;11418;48.118;9.992;2023-05-07T22:42:25;13.70;99.90
22503;DHT22;11418;48.118;9.992;2023-05-07T22:46:25;13.90;99.90
22503;DHT22;11418;48.118;9.992;2023-05-07T22:50:26;14.00;99.90
22503;DHT22;11418;48.118;9.992;2023-05-07T22:54:26;14.20;99.90
22503;DHT22;11418;48.118;9.992;2023-05-07T22:58:27;14.10;99.90
22503;DHT22;11418;48.118;9.992;2023-05-07T23:02:27;13.90;99.90
22503;DHT22;11418;48.118;9.992;2023-05-07T23:06:28;13.70;99.90
22503;DHT22;11418;48.118;9.992;2023-05-07T23:10:28;13.90;99.90
22503;DHT22;11418;48.118;9.992;2023-05-07T23:14:29;14.00;99.90
22503;DHT22;11418;48.118;9.992;2023-05-07T23:18:29;14.10;99.90
22503;DHT22;11418;48.118;9.992;2023-05-07T23:22:31;14.20;99.90
22503;DHT22;11418;48.118;9.992;2023-05-07T23:26:32;14.20;99.90
22503;DHT22;11418;48.118;9.992;2023-05-07T23:30:32;14.10;99.90
22503;DHT22;11418;48.118;9.992;2023-05-07T23:34:33;14.10;99.90
22503;DHT22;11418;48.118;9.992;2023-05-07T23:38:34;13.80;99.90
22503;DHT22;11418;48.118;9.992;2023-05-07T23:42:35;13.90;99.90
22503;DHT22;11418;48.118;9.992;2023-05-07T23:46:35;13.90;99.90
22503;DHT22;11418;48.118;9.992;2023-05-07T23:50:36;13.80;99.90
22503;DHT22;11418;48.118;9.992;2023-05-07T23:54:36;13.70;99.90
22503;DHT22;11418;48.118;9.992;2023-05-07T23:58:37;13.50;99.90
